createdAt,value
2023-05-05T00:02:45.033Z,54.58
2023-05-05T00:07:46.803Z,54.77
2023-05-05T00:12:48.886Z,54.95
2023-05-05T00:17:50.745Z,55.15
2023-05-05T00:22:52.758Z,55.42
2023-05-05T00:27:54.597Z,55.38
2023-05-05T00:32:57.343Z,55.48
2023-05-05T00:37:59.635Z,55.55
2023-05-05T00:43:01.461Z,55.91
2023-05-05T00:48:03.876Z,55.68
2023-05-05T00:53:06.709Z,56.12
2023-05-05T00:58:09.275Z,56.62
2023-05-05T01:03:13.080Z,56.63
2023-05-05T01:08:36.567Z,56.64
2023-05-05T01:13:55.677Z,57.50
2023-05-05T01:19:34.778Z,57.60
2023-05-05T01:24:39.538Z,57.24
2023-05-05T01:29:50.567Z,57.85
2023-05-05T01:35:04.361Z,58.33
2023-05-05T01:40:08.970Z,58.54
2023-05-05T01:45:14.694Z,58.10
2023-05-05T01:50:18.158Z,58.06
2023-05-05T01:55:23.890Z,58.32
2023-05-05T02:00:27.109Z,58.35
2023-05-05T02:05:31.746Z,58.28
2023-05-05T02:10:34.264Z,58.15
2023-05-05T02:15:38.342Z,58.11
2023-05-05T02:20:41.222Z,58.23
2023-05-05T02:25:46.215Z,58.47
2023-05-05T02:30:59.518Z,58.42
2023-05-05T02:36:29.642Z,58.65
2023-05-05T02:41:38.408Z,58.55
2023-05-05T02:46:45.923Z,58.33
2023-05-05T02:51:48.304Z,58.57
2023-05-05T02:56:57.850Z,58.27
2023-05-05T03:02:18.190Z,58.96
2023-05-05T03:07:34.697Z,58.82
2023-05-05T03:12:40.434Z,58.80
2023-05-05T03:17:54.161Z,58.61
2023-05-05T03:22:56.711Z,58.64
2023-05-05T03:27:58.565Z,58.63
2023-05-05T03:33:01.115Z,58.76
2023-05-05T03:38:03.467Z,59.07
2023-05-05T03:43:05.367Z,59.12
2023-05-05T03:48:09.676Z,58.80
2023-05-05T03:53:13.186Z,59.06
2023-05-05T03:58:16.517Z,59.08
2023-05-05T04:03:18.497Z,58.84
2023-05-05T04:08:20.448Z,59.09
2023-05-05T04:13:22.286Z,58.81
2023-05-05T04:18:24.107Z,58.50
2023-05-05T04:23:26.431Z,58.29
2023-05-05T04:28:28.664Z,58.57
2023-05-05T04:33:30.768Z,58.56
2023-05-05T04:38:32.852Z,58.67
2023-05-05T04:43:36.328Z,58.27
2023-05-05T04:48:38.615Z,57.88
2023-05-05T04:53:40.850Z,54.14
2023-05-05T04:58:42.870Z,51.27
2023-05-05T05:03:44.827Z,48.94
2023-05-05T05:08:47.752Z,46.13
2023-05-05T05:13:50.075Z,45.82
2023-05-05T05:18:51.936Z,47.24
2023-05-05T05:23:54.131Z,48.69
2023-05-05T05:28:56.066Z,49.40
2023-05-05T05:33:58.705Z,49.67
2023-05-05T05:39:00.733Z,50.06
2023-05-05T05:44:03.468Z,50.03
2023-05-05T05:49:05.581Z,50.55
2023-05-05T05:54:07.653Z,50.62
2023-05-05T05:59:10.353Z,50.99
2023-05-05T06:04:14.131Z,50.71
2023-05-05T06:09:16.154Z,50.39
2023-05-05T06:14:20.013Z,49.68
2023-05-05T06:19:22.600Z,49.06
2023-05-05T06:24:25.058Z,48.32
2023-05-05T06:29:27.022Z,47.27
2023-05-05T06:34:28.746Z,47.67
2023-05-05T06:39:30.845Z,47.93
2023-05-05T06:44:34.619Z,47.39
2023-05-05T06:49:36.668Z,47.50
2023-05-05T06:54:38.415Z,46.86
2023-05-05T06:59:40.462Z,47.16
2023-05-05T07:04:43.713Z,46.72
2023-05-05T07:09:45.459Z,47.08
2023-05-05T07:14:47.250Z,46.66
2023-05-05T07:19:49.037Z,46.59
2023-05-05T07:24:53.424Z,46.44
2023-05-05T07:29:55.265Z,46.55
2023-05-05T07:34:57.092Z,45.58
2023-05-05T07:39:58.930Z,44.00
2023-05-05T07:45:00.841Z,42.78
2023-05-05T07:50:02.618Z,40.99
2023-05-05T07:55:04.927Z,40.34
2023-05-05T08:00:09.426Z,39.73
2023-05-05T08:05:14.561Z,39.36
2023-05-05T08:10:16.468Z,38.81
2023-05-05T08:15:18.305Z,38.75
2023-05-05T08:20:21.153Z,38.02
2023-05-05T08:25:23.092Z,37.96
2023-05-05T08:30:24.821Z,38.50
2023-05-05T08:35:26.580Z,37.88
2023-05-05T08:40:36.547Z,36.67
2023-05-05T08:45:41.844Z,37.03
2023-05-05T08:50:48.704Z,36.24
2023-05-05T08:55:56.165Z,35.84
2023-05-05T09:00:58.684Z,35.75
2023-05-05T09:06:00.936Z,35.51
2023-05-05T09:11:02.857Z,34.85
2023-05-05T09:16:04.869Z,33.96
2023-05-05T09:21:24.910Z,33.14
2023-05-05T09:26:26.789Z,33.40
2023-05-05T09:31:30.963Z,33.23
2023-05-05T09:36:47.517Z,32.13
2023-05-05T09:41:49.314Z,32.35
2023-05-05T09:46:52.882Z,30.96
2023-05-05T09:51:55.126Z,31.29
2023-05-05T09:56:57.477Z,30.34
2023-05-05T10:02:13.296Z,30.12
2023-05-05T10:07:27.510Z,30.11
2023-05-05T10:12:31.344Z,30.58
2023-05-05T10:17:37.372Z,30.40
2023-05-05T10:22:40.066Z,30.02
2023-05-05T10:27:50.724Z,30.47
2023-05-05T10:33:13.554Z,30.37
2023-05-05T10:38:21.092Z,30.98
2023-05-05T10:43:24.548Z,31.18
2023-05-05T10:48:49.384Z,30.38
2023-05-05T10:53:58.718Z,30.67
2023-05-05T10:59:00.949Z,31.31
2023-05-05T11:04:23.234Z,30.32
2023-05-05T11:09:28.846Z,30.17
2023-05-05T11:14:30.808Z,30.45
2023-05-05T11:19:48.484Z,29.01
2023-05-05T11:24:50.340Z,29.28
2023-05-05T11:30:04.958Z,28.57
2023-05-05T11:35:07.250Z,29.40
2023-05-05T11:40:28.753Z,27.67
2023-05-05T11:45:30.588Z,27.90
2023-05-05T11:50:33.402Z,28.30
2023-05-05T11:55:35.249Z,28.28
2023-05-05T12:00:37.112Z,28.09
2023-05-05T12:05:39.031Z,28.24
2023-05-05T12:10:41.082Z,27.16
2023-05-05T12:15:42.824Z,26.89
2023-05-05T12:20:44.718Z,26.42
2023-05-05T12:25:46.520Z,26.74
2023-05-05T12:30:58.891Z,25.76
2023-05-05T12:36:00.943Z,25.72
2023-05-05T12:41:02.817Z,26.05
2023-05-05T12:46:06.532Z,26.66
2023-05-05T12:51:19.971Z,25.28
2023-05-05T12:56:35.157Z,25.41
2023-05-05T13:01:48.091Z,25.47
2023-05-05T13:07:11.225Z,25.67
2023-05-05T13:12:13.172Z,25.86
2023-05-05T13:17:15.057Z,26.77
2023-05-05T13:22:16.956Z,26.89
2023-05-05T13:27:19.048Z,27.51
2023-05-05T13:32:20.913Z,27.33
2023-05-05T13:37:22.740Z,27.04
2023-05-05T13:42:24.635Z,26.83
2023-05-05T13:47:26.442Z,26.50
2023-05-05T13:52:29.834Z,26.80
2023-05-05T13:57:32.815Z,27.05
2023-05-05T14:02:34.654Z,27.42
2023-05-05T14:07:36.466Z,27.81
2023-05-05T14:12:38.296Z,28.25
2023-05-05T14:17:40.141Z,30.95
2023-05-05T14:22:42.334Z,32.70
2023-05-05T14:27:44.388Z,33.89
2023-05-05T14:32:46.195Z,35.15
2023-05-05T14:37:47.951Z,35.97
2023-05-05T14:42:50.918Z,36.62
2023-05-05T14:47:52.857Z,37.23
2023-05-05T14:52:54.611Z,37.10
2023-05-05T14:57:56.389Z,37.36
2023-05-05T15:02:58.313Z,38.24
2023-05-05T15:08:00.058Z,38.20
2023-05-05T15:13:01.977Z,38.44
2023-05-05T15:18:04.061Z,38.77
2023-05-05T15:23:05.941Z,38.70
2023-05-05T15:28:07.833Z,38.32
2023-05-05T15:33:10.715Z,37.70
2023-05-05T15:38:12.610Z,37.19
2023-05-05T15:43:14.323Z,36.72
2023-05-05T15:48:16.125Z,36.68
2023-05-05T15:53:17.925Z,36.78
2023-05-05T15:58:19.669Z,36.75
2023-05-05T16:03:21.714Z,36.54
2023-05-05T16:08:23.599Z,36.86
2023-05-05T16:13:25.356Z,36.50
2023-05-05T16:18:27.101Z,36.37
2023-05-05T16:23:28.915Z,36.72
2023-05-05T16:28:31.075Z,36.30
2023-05-05T16:33:33.123Z,37.39
2023-05-05T16:38:34.942Z,37.38
2023-05-05T16:43:37.338Z,37.41
2023-05-05T16:48:39.126Z,37.62
2023-05-05T16:53:40.926Z,37.79
2023-05-05T16:58:42.715Z,37.93
2023-05-05T17:03:47.288Z,37.79
2023-05-05T17:08:49.015Z,36.54
2023-05-05T17:13:50.749Z,35.63
2023-05-05T17:18:53.997Z,35.55
2023-05-05T17:23:55.795Z,35.92
2023-05-05T17:28:57.529Z,35.76
2023-05-05T17:33:59.322Z,35.81
2023-05-05T17:39:01.088Z,35.44
2023-05-05T17:44:02.877Z,35.69
2023-05-05T17:49:04.728Z,35.13
2023-05-05T17:54:06.602Z,35.88
2023-05-05T17:59:08.913Z,36.10
2023-05-05T18:04:11.921Z,36.94
2023-05-05T18:09:14.003Z,37.47
2023-05-05T18:14:15.993Z,38.29
2023-05-05T18:19:20.692Z,38.44
2023-05-05T18:24:22.475Z,39.32
2023-05-05T18:29:24.316Z,39.27
2023-05-05T18:34:26.372Z,39.22
2023-05-05T18:39:28.195Z,39.47
2023-05-05T18:44:29.944Z,39.66
2023-05-05T18:49:31.860Z,40.70
2023-05-05T18:54:34.687Z,41.35
2023-05-05T18:59:38.329Z,42.21
2023-05-05T19:04:41.538Z,43.20
2023-05-05T19:09:43.412Z,43.58
2023-05-05T19:14:45.546Z,44.27
2023-05-05T19:19:47.296Z,44.45
2023-05-05T19:24:49.113Z,45.00
2023-05-05T19:29:52.683Z,45.43
2023-05-05T19:34:54.870Z,45.57
2023-05-05T19:39:56.632Z,45.86
2023-05-05T19:44:58.455Z,45.88
2023-05-05T19:50:00.365Z,45.98
2023-05-05T19:55:02.211Z,46.56
2023-05-05T20:00:04.483Z,46.73
2023-05-05T20:05:06.612Z,46.37
2023-05-05T20:10:09.663Z,46.77
2023-05-05T20:15:11.722Z,46.70
2023-05-05T20:20:17.240Z,47.16
2023-05-05T20:25:19.060Z,47.75
2023-05-05T20:30:21.050Z,48.95
2023-05-05T20:35:23.048Z,48.68
2023-05-05T20:40:24.858Z,49.26
2023-05-05T20:45:26.690Z,49.55
2023-05-05T20:50:28.524Z,49.70
2023-05-05T20:55:30.465Z,49.96
2023-05-05T21:00:32.347Z,50.36
2023-05-05T21:05:34.245Z,51.07
2023-05-05T21:10:36.391Z,51.38
2023-05-05T21:15:38.182Z,51.34
2023-05-05T21:20:39.988Z,51.70
2023-05-05T21:25:41.780Z,51.17
2023-05-05T21:30:44.283Z,51.55
2023-05-05T21:35:47.033Z,51.98
2023-05-05T21:40:49.737Z,52.28
2023-05-05T21:46:04.336Z,52.82
2023-05-05T21:51:06.815Z,53.20
2023-05-05T21:56:08.705Z,53.29
2023-05-05T22:01:10.748Z,53.70
2023-05-05T22:06:12.576Z,53.87
2023-05-05T22:11:14.768Z,54.36
2023-05-05T22:16:19.609Z,54.38
2023-05-05T22:21:22.137Z,54.14
2023-05-05T22:26:23.972Z,53.75
2023-05-05T22:31:25.880Z,53.86
2023-05-05T22:36:27.668Z,53.92
2023-05-05T22:41:29.437Z,54.11
2023-05-05T22:46:31.350Z,54.39
2023-05-05T22:51:33.205Z,54.20
2023-05-05T22:56:34.940Z,54.36
2023-05-05T23:01:36.809Z,54.41
2023-05-05T23:06:41.304Z,54.58
2023-05-05T23:11:45.961Z,55.06
2023-05-05T23:16:47.950Z,54.96
2023-05-05T23:21:53.556Z,55.00
2023-05-05T23:26:58.449Z,54.98
2023-05-05T23:32:00.175Z,55.13
2023-05-05T23:37:02.947Z,54.96
2023-05-05T23:42:06.508Z,54.69
2023-05-05T23:47:08.248Z,54.81
2023-05-05T23:52:11.346Z,54.72
2023-05-05T23:57:13.280Z,54.79
